createdAt,value
2018-09-28T00:01:23.333Z,2.17
2018-09-28T00:03:51.784Z,2.60
2018-09-28T00:06:20.225Z,2.20
2018-09-28T00:08:48.644Z,3.00
2018-09-28T00:11:17.175Z,2.60
2018-09-28T00:13:45.657Z,2.13
2018-09-28T00:16:14.118Z,2.47
2018-09-28T00:18:42.532Z,3.90
2018-09-28T00:21:11.029Z,2.37
2018-09-28T00:23:39.451Z,3.33
2018-09-28T00:26:08.059Z,3.03
2018-09-28T00:28:36.435Z,4.77
2018-09-28T00:31:04.925Z,2.60
2018-09-28T00:33:33.367Z,2.30
2018-09-28T00:36:01.878Z,2.23
2018-09-28T00:38:30.346Z,2.50
2018-09-28T00:40:58.753Z,2.40
2018-09-28T00:43:27.224Z,3.13
2018-09-28T00:45:55.631Z,1.90
2018-09-28T00:48:24.085Z,2.10
2018-09-28T00:50:52.540Z,4.33
2018-09-28T00:53:20.986Z,3.40
2018-09-28T00:55:49.426Z,2.43
2018-09-28T00:58:17.884Z,2.70
2018-09-28T01:00:46.328Z,6.93
2018-09-28T01:03:14.890Z,2.60
2018-09-28T01:05:43.348Z,2.50
2018-09-28T01:08:11.803Z,2.73
2018-09-28T01:10:40.258Z,2.97
2018-09-28T01:13:08.713Z,2.90
2018-09-28T01:15:37.134Z,2.57
2018-09-28T01:18:05.580Z,2.67
2018-09-28T01:20:34.009Z,3.70
2018-09-28T01:23:02.500Z,2.47
2018-09-28T01:25:30.949Z,2.20
2018-09-28T01:27:59.383Z,2.80
2018-09-28T01:30:27.907Z,3.33
2018-09-28T01:32:56.359Z,5.17
2018-09-28T01:35:24.775Z,3.20
2018-09-28T01:37:53.215Z,2.23
2018-09-28T01:40:21.632Z,2.57
2018-09-28T01:42:50.130Z,3.30
2018-09-28T01:45:18.601Z,2.83
2018-09-28T01:47:47.045Z,2.10
2018-09-28T01:50:15.541Z,2.77
2018-09-28T01:52:44.012Z,2.50
2018-09-28T01:55:12.544Z,2.70
2018-09-28T01:57:41.008Z,2.03
2018-09-28T02:00:09.471Z,2.50
2018-09-28T02:02:38.033Z,3.03
2018-09-28T02:05:06.531Z,3.83
2018-09-28T02:07:34.973Z,2.30
2018-09-28T02:10:03.455Z,2.80
2018-09-28T02:12:31.931Z,2.23
2018-09-28T02:15:00.393Z,3.97
2018-09-28T02:17:28.867Z,2.63
2018-09-28T02:19:57.348Z,2.60
2018-09-28T02:22:25.796Z,2.53
2018-09-28T02:24:54.227Z,4.43
2018-09-28T02:27:22.640Z,2.57
2018-09-28T02:29:51.079Z,2.53
2018-09-28T02:32:19.496Z,2.43
2018-09-28T02:34:47.941Z,3.27
2018-09-28T02:37:16.364Z,3.03
2018-09-28T02:39:44.812Z,2.57
2018-09-28T02:42:13.228Z,2.33
2018-09-28T02:44:41.717Z,2.50
2018-09-28T02:47:10.168Z,3.00
2018-09-28T02:49:38.635Z,2.80
2018-09-28T02:52:07.101Z,3.23
2018-09-28T02:54:35.610Z,4.10
2018-09-28T02:57:04.189Z,3.20
2018-09-28T02:59:32.584Z,2.40
2018-09-28T03:02:01.021Z,2.80
2018-09-28T03:04:29.520Z,2.83
2018-09-28T03:06:57.948Z,2.70
2018-09-28T03:09:26.657Z,3.43
2018-09-28T03:11:55.084Z,2.63
2018-09-28T03:14:23.517Z,5.00
2018-09-28T03:16:52.008Z,3.70
2018-09-28T03:19:20.461Z,3.27
2018-09-28T03:21:48.991Z,3.27
2018-09-28T03:24:17.446Z,3.43
2018-09-28T03:26:45.886Z,4.80
2018-09-28T03:29:14.355Z,7.03
2018-09-28T03:31:42.836Z,2.60
2018-09-28T03:34:11.458Z,2.97
2018-09-28T03:36:39.939Z,3.63
2018-09-28T03:39:08.628Z,2.93
2018-09-28T03:41:37.141Z,3.47
2018-09-28T03:44:05.881Z,3.40
2018-09-28T03:46:34.412Z,4.83
2018-09-28T03:49:02.836Z,2.37
2018-09-28T03:51:31.242Z,2.60
2018-09-28T03:53:59.745Z,3.27
2018-09-28T03:56:28.165Z,3.43
2018-09-28T03:58:56.651Z,3.90
2018-09-28T04:01:25.081Z,6.73
2018-09-28T04:03:53.704Z,2.87
2018-09-28T04:06:22.141Z,3.40
2018-09-28T04:08:50.537Z,3.30
2018-09-28T04:11:18.948Z,3.13
2018-09-28T04:13:47.399Z,3.40
2018-09-28T04:16:15.872Z,2.73
2018-09-28T04:18:44.299Z,2.83
2018-09-28T04:21:12.727Z,4.43
2018-09-28T04:23:41.154Z,3.13
2018-09-28T04:26:09.669Z,2.50
2018-09-28T04:28:38.081Z,2.60
2018-09-28T04:31:06.545Z,6.37
2018-09-28T04:33:34.969Z,3.43
2018-09-28T04:36:03.761Z,3.23
2018-09-28T04:38:32.159Z,3.93
2018-09-28T04:41:00.577Z,2.80
2018-09-28T04:43:28.986Z,3.10
2018-09-28T04:45:57.523Z,3.20
2018-09-28T04:48:25.958Z,2.80
2018-09-28T04:50:54.368Z,4.37
2018-09-28T04:53:22.767Z,3.00
2018-09-28T04:55:51.168Z,2.60
2018-09-28T04:58:19.628Z,2.40
2018-09-28T05:00:48.030Z,3.80
2018-09-28T05:03:16.468Z,2.97
2018-09-28T05:05:44.884Z,3.40
2018-09-28T05:08:13.307Z,3.73
2018-09-28T05:10:41.746Z,4.73
2018-09-28T05:13:10.323Z,3.43
2018-09-28T05:15:38.716Z,3.33
2018-09-28T05:18:07.168Z,4.20
2018-09-28T05:20:35.605Z,3.93
2018-09-28T05:23:04.027Z,3.87
2018-09-28T05:25:32.452Z,3.03
2018-09-28T05:28:00.834Z,3.07
2018-09-28T05:30:29.297Z,2.93
2018-09-28T05:32:57.877Z,3.53
2018-09-28T05:35:26.816Z,2.60
2018-09-28T05:37:55.229Z,5.60
2018-09-28T05:40:23.669Z,3.63
2018-09-28T05:42:52.059Z,4.13
2018-09-28T05:45:20.888Z,3.87
2018-09-28T05:47:49.290Z,3.47
2018-09-28T05:50:17.757Z,3.40
2018-09-28T05:52:46.177Z,3.20
2018-09-28T05:55:14.633Z,3.63
2018-09-28T05:57:43.072Z,2.90
2018-09-28T06:00:16.841Z,4.90
2018-09-28T06:02:50.449Z,2.43
2018-09-28T06:05:36.253Z,2.80
2018-09-28T06:08:04.673Z,2.47
2018-09-28T06:10:33.143Z,4.90
2018-09-28T06:13:01.528Z,2.50
2018-09-28T06:15:30.852Z,4.17
2018-09-28T06:17:59.277Z,3.37
2018-09-28T06:20:27.696Z,4.43
2018-09-28T06:22:56.089Z,3.43
2018-09-28T06:25:24.503Z,3.07
2018-09-28T06:27:53.243Z,3.87
2018-09-28T06:30:22.129Z,4.20
2018-09-28T06:32:50.524Z,3.30
2018-09-28T06:35:20.092Z,3.60
2018-09-28T06:37:50.074Z,3.50
2018-09-28T06:40:20.822Z,3.47
2018-09-28T06:42:49.292Z,4.67
2018-09-28T06:45:17.719Z,3.97
2018-09-28T06:47:46.303Z,3.60
2018-09-28T06:50:15.616Z,3.77
2018-09-28T06:52:44.052Z,9.37
2018-09-28T06:55:12.468Z,2.50
2018-09-28T06:57:40.865Z,3.40
2018-09-28T07:00:09.635Z,2.80
2018-09-28T07:02:38.146Z,2.77
2018-09-28T07:05:06.701Z,3.00
2018-09-28T07:07:35.113Z,3.00
2018-09-28T07:10:03.549Z,2.87
2018-09-28T07:12:31.984Z,3.43
2018-09-28T07:15:00.385Z,6.33
2018-09-28T07:17:28.800Z,3.10
2018-09-28T07:19:57.205Z,3.80
2018-09-28T07:22:25.609Z,4.77
2018-09-28T07:24:54.016Z,8.03
2018-09-28T07:27:22.440Z,7.63
2018-09-28T07:29:50.932Z,5.40
2018-09-28T07:32:19.309Z,5.60
2018-09-28T07:34:47.691Z,4.80
2018-09-28T07:37:16.264Z,4.73
2018-09-28T07:39:44.568Z,9.07
2018-09-28T07:42:13.069Z,4.57
2018-09-28T07:44:41.768Z,7.60
2018-09-28T07:47:10.232Z,7.07
2018-09-28T07:49:38.628Z,4.90
2018-09-28T07:52:07.807Z,5.40
2018-09-28T07:54:36.276Z,5.03
2018-09-28T07:57:04.684Z,4.30
2018-09-28T07:59:33.088Z,6.77
2018-09-28T08:02:01.741Z,5.73
2018-09-28T08:04:30.182Z,6.13
2018-09-28T08:06:58.946Z,7.10
2018-09-28T08:09:27.388Z,5.23
2018-09-28T08:11:55.780Z,5.53
2018-09-28T08:14:24.212Z,7.10
2018-09-28T08:16:52.625Z,5.03
2018-09-28T08:19:21.036Z,4.50
2018-09-28T08:21:49.447Z,3.90
2018-09-28T08:24:17.852Z,4.40
2018-09-28T08:26:46.245Z,4.70
2018-09-28T08:29:14.657Z,4.27
2018-09-28T08:31:43.049Z,6.80
2018-09-28T08:34:11.465Z,4.17
2018-09-28T08:36:39.925Z,3.60
2018-09-28T08:39:09.184Z,4.00
2018-09-28T08:41:37.570Z,4.53
2018-09-28T08:44:06.196Z,7.30
2018-09-28T08:46:34.660Z,3.70
2018-09-28T08:49:03.899Z,3.83
2018-09-28T08:51:32.292Z,5.20
2018-09-28T08:54:00.745Z,4.53
2018-09-28T08:56:29.199Z,4.50
2018-09-28T08:58:57.611Z,8.20
2018-09-28T09:01:26.048Z,5.40
2018-09-28T09:03:54.471Z,6.43
2018-09-28T09:06:22.892Z,5.20
2018-09-28T09:08:51.308Z,6.13
2018-09-28T09:11:19.722Z,6.60
2018-09-28T09:13:48.127Z,12.10
2018-09-28T09:16:16.539Z,10.60
2018-09-28T09:18:44.962Z,10.80
2018-09-28T09:21:13.392Z,8.73
2018-09-28T09:23:41.798Z,12.10
2018-09-28T09:26:10.208Z,15.50
2018-09-28T09:28:38.629Z,12.67
2018-09-28T09:31:07.274Z,14.27
2018-09-28T09:33:35.674Z,11.73
2018-09-28T09:36:04.120Z,16.80
2018-09-28T09:38:32.532Z,11.63
2018-09-28T09:41:00.957Z,12.83
2018-09-28T09:43:29.410Z,19.10
2018-09-28T09:45:57.882Z,22.80
2018-09-28T09:48:26.373Z,23.43
2018-09-28T09:50:54.749Z,20.27
2018-09-28T09:53:23.164Z,18.80
2018-09-28T09:55:51.570Z,18.33
2018-09-28T09:58:19.988Z,23.13
2018-09-28T10:00:53.731Z,19.97
2018-09-28T10:03:27.502Z,16.53
2018-09-28T10:05:55.896Z,23.20
2018-09-28T10:08:24.301Z,20.67
2018-09-28T10:10:52.689Z,21.37
2018-09-28T10:13:21.108Z,20.63
2018-09-28T10:15:49.499Z,18.00
2018-09-28T10:18:17.915Z,21.73
2018-09-28T10:20:46.312Z,14.23
2018-09-28T10:23:14.712Z,17.77
2018-09-28T10:25:43.127Z,15.67
2018-09-28T10:28:11.629Z,17.37
2018-09-28T10:30:40.034Z,15.27
2018-09-28T10:33:08.496Z,16.67
2018-09-28T10:35:36.915Z,12.83
2018-09-28T10:38:05.348Z,10.87
2018-09-28T10:40:33.936Z,11.97
2018-09-28T10:43:03.191Z,13.70
2018-09-28T10:45:31.642Z,12.50
2018-09-28T10:48:00.070Z,11.20
2018-09-28T10:50:28.452Z,17.40
2018-09-28T10:52:57.031Z,13.90
2018-09-28T10:55:25.283Z,12.47
2018-09-28T10:57:53.705Z,10.93
2018-09-28T11:00:22.123Z,14.40
2018-09-28T11:02:50.581Z,16.63
2018-09-28T11:05:19.037Z,15.30
2018-09-28T11:07:47.438Z,13.70
2018-09-28T11:10:15.891Z,19.63
2018-09-28T11:12:44.316Z,15.53
2018-09-28T11:15:12.841Z,14.07
2018-09-28T11:17:41.274Z,16.67
2018-09-28T11:20:09.743Z,18.40
2018-09-28T11:22:38.157Z,20.40
2018-09-28T11:25:06.641Z,18.43
2018-09-28T11:27:35.165Z,19.70
2018-09-28T11:30:03.673Z,20.43
2018-09-28T11:32:32.091Z,19.90
2018-09-28T11:35:00.525Z,18.60
2018-09-28T11:37:28.954Z,22.00
2018-09-28T11:39:57.417Z,17.30
2018-09-28T11:42:25.833Z,14.60
2018-09-28T11:44:54.259Z,13.77
2018-09-28T11:47:22.656Z,13.73
2018-09-28T11:49:51.067Z,17.60
2018-09-28T11:52:19.496Z,14.80
2018-09-28T11:54:47.905Z,6.60
2018-09-28T11:57:16.301Z,5.63
2018-09-28T11:59:44.755Z,6.73
2018-09-28T12:02:13.151Z,6.20
2018-09-28T12:04:41.579Z,7.83
2018-09-28T12:07:09.992Z,5.97
2018-09-28T12:09:38.462Z,4.67
2018-09-28T12:12:06.946Z,5.40
2018-09-28T12:14:35.355Z,4.47
2018-09-28T12:17:03.780Z,4.90
2018-09-28T12:19:33.525Z,3.90
2018-09-28T12:22:02.029Z,5.93
2018-09-28T12:24:30.781Z,7.17
2018-09-28T12:26:59.199Z,6.97
2018-09-28T12:29:27.600Z,6.70
2018-09-28T12:31:56.012Z,7.23
2018-09-28T12:34:24.401Z,5.97
2018-09-28T12:36:52.918Z,5.93
2018-09-28T12:39:21.232Z,4.43
2018-09-28T12:41:49.641Z,4.17
2018-09-28T12:44:18.099Z,5.13
2018-09-28T12:46:46.472Z,5.30
2018-09-28T12:49:14.857Z,4.23
2018-09-28T12:51:43.271Z,5.27
2018-09-28T12:54:11.660Z,2.33
2018-09-28T12:56:40.165Z,2.30
2018-09-28T12:59:08.516Z,3.00
2018-09-28T13:01:36.937Z,1.97
2018-09-28T13:04:06.189Z,2.13
2018-09-28T13:06:34.655Z,1.77
2018-09-28T13:09:03.065Z,3.30
2018-09-28T13:11:31.475Z,2.70
2018-09-28T13:13:59.864Z,2.63
2018-09-28T13:16:28.269Z,5.87
2018-09-28T13:18:56.754Z,3.60
2018-09-28T13:21:25.155Z,3.47
2018-09-28T13:23:53.571Z,5.30
2018-09-28T13:26:21.963Z,4.50
2018-09-28T13:28:50.384Z,3.83
2018-09-28T13:31:18.767Z,7.10
2018-09-28T13:33:47.195Z,3.90
2018-09-28T13:36:15.658Z,6.53
2018-09-28T13:38:44.166Z,6.97
2018-09-28T13:41:12.497Z,4.03
2018-09-28T13:43:40.900Z,6.47
2018-09-28T13:46:09.361Z,3.97
2018-09-28T13:48:37.726Z,3.87
2018-09-28T13:51:10.784Z,4.20
2018-09-28T13:53:39.235Z,3.20
2018-09-28T13:56:07.684Z,3.23
2018-09-28T13:58:36.137Z,5.63
2018-09-28T14:01:04.561Z,3.70
2018-09-28T14:03:32.991Z,4.10
2018-09-28T14:06:01.380Z,4.10
2018-09-28T14:08:29.783Z,5.43
2018-09-28T14:10:58.205Z,6.23
2018-09-28T14:13:26.642Z,3.23
2018-09-28T14:15:55.079Z,5.10
2018-09-28T14:18:23.511Z,4.47
2018-09-28T14:20:51.909Z,5.77
2018-09-28T14:23:20.288Z,7.53
2018-09-28T14:25:48.692Z,5.40
2018-09-28T14:28:17.196Z,12.83
2018-09-28T14:30:45.699Z,11.97
2018-09-28T14:33:14.057Z,7.40
2018-09-28T14:35:42.466Z,8.53
2018-09-28T14:38:10.860Z,6.93
2018-09-28T14:40:39.301Z,6.83
2018-09-28T14:43:07.747Z,7.50
2018-09-28T14:45:36.188Z,9.03
2018-09-28T14:48:04.631Z,6.80
2018-09-28T14:50:33.033Z,6.90
2018-09-28T14:53:01.427Z,7.77
2018-09-28T14:55:29.848Z,8.97
2018-09-28T14:57:58.240Z,6.67
2018-09-28T15:00:26.733Z,5.73
2018-09-28T15:02:55.089Z,8.00
2018-09-28T15:05:23.539Z,7.07
2018-09-28T15:07:51.941Z,6.37
2018-09-28T15:10:20.394Z,6.53
2018-09-28T15:12:48.862Z,7.87
2018-09-28T15:15:17.272Z,9.27
2018-09-28T15:17:47.070Z,10.03
2018-09-28T15:20:15.873Z,8.13
2018-09-28T15:22:44.300Z,10.03
2018-09-28T15:25:12.678Z,10.93
2018-09-28T15:27:41.104Z,10.80
2018-09-28T15:30:09.556Z,9.07
2018-09-28T15:32:38.140Z,12.67
2018-09-28T15:35:06.722Z,13.60
2018-09-28T15:37:35.124Z,9.63
2018-09-28T15:40:03.552Z,9.27
2018-09-28T15:42:31.965Z,11.13
2018-09-28T15:45:00.358Z,8.17
2018-09-28T15:47:28.806Z,7.50
2018-09-28T15:49:57.229Z,8.30
2018-09-28T15:52:25.659Z,8.13
2018-09-28T15:54:54.047Z,6.57
2018-09-28T15:57:22.455Z,4.33
2018-09-28T15:59:50.840Z,5.60
2018-09-28T16:02:19.243Z,5.20
2018-09-28T16:04:47.656Z,5.83
2018-09-28T16:07:16.059Z,6.37
2018-09-28T16:09:44.476Z,10.10
2018-09-28T16:12:12.923Z,4.73
2018-09-28T16:14:41.317Z,7.13
2018-09-28T16:17:09.721Z,13.57
2018-09-28T16:19:38.141Z,5.10
2018-09-28T16:22:06.589Z,9.43
2018-09-28T16:24:35.052Z,5.57
2018-09-28T16:27:05.955Z,9.43
2018-09-28T16:29:34.433Z,5.40
2018-09-28T16:32:02.826Z,7.77
2018-09-28T16:34:31.233Z,3.80
2018-09-28T16:36:59.619Z,8.97
2018-09-28T16:39:29.777Z,6.20
2018-09-28T16:42:05.715Z,4.13
2018-09-28T16:44:38.204Z,8.30
2018-09-28T16:47:06.735Z,6.90
2018-09-28T16:49:35.465Z,5.73
2018-09-28T16:52:03.872Z,7.77
2018-09-28T16:54:32.304Z,7.20
2018-09-28T16:57:01.977Z,7.77
2018-09-28T16:59:33.717Z,5.97
2018-09-28T17:02:02.881Z,10.50
2018-09-28T17:04:32.172Z,10.93
2018-09-28T17:07:00.849Z,5.60
2018-09-28T17:09:29.893Z,5.73
2018-09-28T17:11:58.279Z,10.13
2018-09-28T17:14:26.664Z,3.87
2018-09-28T17:16:55.090Z,2.57
2018-09-28T17:19:23.516Z,3.23
2018-09-28T17:21:51.952Z,6.10
2018-09-28T17:24:20.384Z,4.53
2018-09-28T17:26:48.804Z,7.13
2018-09-28T17:29:17.349Z,6.13
2018-09-28T17:31:46.118Z,6.90
2018-09-28T17:34:16.957Z,3.90
2018-09-28T17:36:45.517Z,8.40
2018-09-28T17:39:14.254Z,13.43
2018-09-28T17:41:42.969Z,4.50
2018-09-28T17:44:11.404Z,11.50
2018-09-28T17:46:39.832Z,8.03
2018-09-28T17:49:08.332Z,5.20
2018-09-28T17:51:36.755Z,8.10
2018-09-28T17:54:05.261Z,10.83
2018-09-28T17:56:33.606Z,6.50
2018-09-28T17:59:01.992Z,4.40
2018-09-28T18:01:30.445Z,3.77
2018-09-28T18:03:58.848Z,3.80
2018-09-28T18:06:27.495Z,7.80
2018-09-28T18:08:55.880Z,8.47
2018-09-28T18:11:24.320Z,14.47
2018-09-28T18:13:52.755Z,11.97
2018-09-28T18:16:21.152Z,8.80
2018-09-28T18:18:49.558Z,9.80
2018-09-28T18:21:18.008Z,3.67
2018-09-28T18:23:46.434Z,5.70
2018-09-28T18:26:14.812Z,14.37
2018-09-28T18:28:43.240Z,4.50
2018-09-28T18:31:11.664Z,9.27
2018-09-28T18:33:40.129Z,7.63
2018-09-28T18:36:08.495Z,6.07
2018-09-28T18:38:36.981Z,7.53
2018-09-28T18:41:05.417Z,4.50
2018-09-28T18:43:33.824Z,3.50
2018-09-28T18:46:02.208Z,15.07
2018-09-28T18:48:30.671Z,9.67
2018-09-28T18:50:59.023Z,6.67
2018-09-28T18:53:27.416Z,7.13
2018-09-28T18:55:55.849Z,8.77
2018-09-28T18:58:24.274Z,4.27
2018-09-28T19:00:52.675Z,7.13
2018-09-28T19:03:21.184Z,6.27
2018-09-28T19:05:49.585Z,5.50
2018-09-28T19:08:18.037Z,16.57
2018-09-28T19:10:46.436Z,6.67
2018-09-28T19:13:14.825Z,9.67
2018-09-28T19:15:43.234Z,3.43
2018-09-28T19:18:11.631Z,7.60
2018-09-28T19:20:40.036Z,5.73
2018-09-28T19:23:08.483Z,7.63
2018-09-28T19:25:36.887Z,2.73
2018-09-28T19:28:05.364Z,5.70
2018-09-28T19:30:33.895Z,5.13
2018-09-28T19:33:02.352Z,4.47
2018-09-28T19:35:30.768Z,6.60
2018-09-28T19:37:59.264Z,5.80
2018-09-28T19:40:27.681Z,6.97
2018-09-28T19:42:56.112Z,7.30
2018-09-28T19:45:24.550Z,5.77
2018-09-28T19:47:52.936Z,6.10
2018-09-28T19:50:21.353Z,6.70
2018-09-28T19:52:49.780Z,8.33
2018-09-28T19:55:18.225Z,15.43
2018-09-28T19:57:46.694Z,5.57
2018-09-28T20:00:15.048Z,8.13
2018-09-28T20:02:43.440Z,6.87
2018-09-28T20:05:12.765Z,3.40
2018-09-28T20:07:41.152Z,3.63
2018-09-28T20:10:09.572Z,2.80
2018-09-28T20:12:37.967Z,4.30
2018-09-28T20:15:06.424Z,3.10
2018-09-28T20:17:34.843Z,5.00
2018-09-28T20:20:03.447Z,3.27
2018-09-28T20:22:31.871Z,3.87
2018-09-28T20:25:00.301Z,2.67
2018-09-28T20:27:28.711Z,2.50
2018-09-28T20:29:57.113Z,1.37
2018-09-28T20:32:25.562Z,4.70
2018-09-28T20:34:53.940Z,2.20
2018-09-28T20:37:22.373Z,4.50
2018-09-28T20:39:50.779Z,2.20
2018-09-28T20:42:19.228Z,5.00
2018-09-28T20:44:47.619Z,4.07
2018-09-28T20:47:16.019Z,3.40
2018-09-28T20:49:44.417Z,11.20
2018-09-28T20:52:12.825Z,5.13
2018-09-28T20:54:41.220Z,2.20
2018-09-28T20:57:09.624Z,1.30
2018-09-28T20:59:38.019Z,1.90
2018-09-28T21:02:06.425Z,5.63
2018-09-28T21:04:34.843Z,3.63
2018-09-28T21:07:03.863Z,2.93
2018-09-28T21:09:37.682Z,7.97
2018-09-28T21:12:08.661Z,4.10
2018-09-28T21:14:37.228Z,3.07
2018-09-28T21:17:07.575Z,5.20
2018-09-28T21:19:35.988Z,3.10
2018-09-28T21:22:04.417Z,4.00
2018-09-28T21:24:32.841Z,8.13
2018-09-28T21:27:01.232Z,2.00
2018-09-28T21:29:30.041Z,6.37
2018-09-28T21:31:59.223Z,3.20
2018-09-28T21:34:30.068Z,3.97
2018-09-28T21:36:58.466Z,3.20
2018-09-28T21:39:26.892Z,2.77
2018-09-28T21:41:55.292Z,1.47
2018-09-28T21:44:23.695Z,2.23
2018-09-28T21:46:52.073Z,7.20
2018-09-28T21:49:20.496Z,4.00
2018-09-28T21:51:48.875Z,4.83
2018-09-28T21:54:17.289Z,6.00
2018-09-28T21:56:45.689Z,6.00
2018-09-28T21:59:14.112Z,3.97
2018-09-28T22:01:42.515Z,2.70
2018-09-28T22:04:10.951Z,3.50
2018-09-28T22:06:39.337Z,3.30
2018-09-28T22:09:08.118Z,1.03
2018-09-28T22:11:36.559Z,2.80
2018-09-28T22:14:05.068Z,2.63
2018-09-28T22:16:33.591Z,4.13
2018-09-28T22:19:02.016Z,1.70
2018-09-28T22:21:30.422Z,1.80
2018-09-28T22:23:58.812Z,4.23
2018-09-28T22:26:27.230Z,4.10
2018-09-28T22:28:55.606Z,2.23
2018-09-28T22:31:24.019Z,2.30
2018-09-28T22:33:52.412Z,4.17
2018-09-28T22:36:20.828Z,9.07
2018-09-28T22:38:49.208Z,1.20
2018-09-28T22:41:17.607Z,1.90
2018-09-28T22:43:46.052Z,6.23
2018-09-28T22:46:14.462Z,3.27
2018-09-28T22:48:42.857Z,5.00
2018-09-28T22:51:11.268Z,5.57
2018-09-28T22:53:39.683Z,3.90
2018-09-28T22:56:08.084Z,1.30
2018-09-28T22:58:36.464Z,1.57
2018-09-28T23:01:04.915Z,3.63
2018-09-28T23:03:33.326Z,3.40
2018-09-28T23:06:01.736Z,1.07
2018-09-28T23:08:30.155Z,1.27
2018-09-28T23:10:58.562Z,1.87
2018-09-28T23:13:26.964Z,8.43
2018-09-28T23:15:55.352Z,3.30
2018-09-28T23:18:23.760Z,1.50
2018-09-28T23:20:52.149Z,3.07
2018-09-28T23:23:20.549Z,4.30
2018-09-28T23:25:48.942Z,2.93
2018-09-28T23:28:17.348Z,4.00
2018-09-28T23:30:45.744Z,4.30
2018-09-28T23:33:14.168Z,1.70
2018-09-28T23:35:42.552Z,3.63
2018-09-28T23:38:11.077Z,5.40
2018-09-28T23:40:39.465Z,4.57
2018-09-28T23:43:07.864Z,2.97
2018-09-28T23:45:36.239Z,2.70
2018-09-28T23:48:04.684Z,4.43
2018-09-28T23:50:33.091Z,0.80
2018-09-28T23:53:01.497Z,1.43
2018-09-28T23:55:29.897Z,2.30
2018-09-28T23:57:58.291Z,3.43
